Ridgewood, NJ (07450)

12:16 PM EDT on October 31, 2014 (GMT -0400)
Hope Street | Change Station
CLOSE
Current Station
Personal Weather Station
Location: Ridgewood, NJ
Elevation: 120 ft
Nearby Weather Stations

Elev 120 ft 40.98 °N, 74.11 °W | Updated 12 minutes ago

Overcast
Overcast
55.6 °F
Feels Like 55.6 °F
N
2.7
Wind Variable Wind from SSE

Today
High -- | Low -- °F
--% Chance of Precip.
Yesterday
High -- | Low -- °F
Precip. -- in
7:26 AM 5:53 PM
First Quarter, 56% visible
Pressure 29.97 in
Visibility 10.0 miles
Clouds Mostly Cloudy 5500 ft
Dew Point 40 °F
Humidity 56%
Rainfall 0.00 in
Snow Depth Not available.
UV 2 out of 12
Pollen .50 out of 12
Air Quality Not available.
Flu Activity Not available.
METAR KTEB 311551Z VRB04KT 10SM BKN055 12/02 A2997 RMK AO2 SLP148 T01170022

More Conditions Fewer Conditions

Pressure 29.97 in
Visibility 10.0 miles
Clouds Mostly Cloudy 5500 ft
Dew Point 40 °F
Humidity 56%
Rainfall 0.00 in
Snow Depth Not available.
UV 2 out of 12
Pollen .50 out of 12
Air Quality Not available.
Flu Activity Not available.
METAR KTEB 311551Z VRB04KT 10SM BKN055 12/02 A2997 RMK AO2 SLP148 T01170022

More Conditions Fewer Conditions

10-Day Weather Forecast

Almanac

Astronomy

Oct. 31, 2014 Rise Set
Actual Time
Civil Twilight
Nautical Twilight
Astronomical Twilight
Moon
Length of Visible Light
Length of Day
Tomorrow will be .
, % of the Moon is Illuminated

Today's Extremes

State Highs State Lows

Community

WunderPhotos

Upload Photos

1,766,651 photos uploaded!

WunderBlogs® & News

Nearby

Air Quality

  Air Quality AQ Index Pollutant
Not available.

Snow Depth

Station Depth Elevation

Earthquake Activity

City Distance Mag. Time & Date
Minimum magnitude displayed is 2.5.

Coastal Water Temperatures

Place Temperature

Nearby Weather Stations